METAR Data
IDs: Format: Raw Decoded Include TAF

Data at: 1514 UTC 10 Aug 2022

KCVH 101455Z AUTO 00000KT 10SM CLR 16/11 A3009 RMK A01
KCVH 101435Z AUTO 14005KT 10SM CLR 15/11 A3009 RMK A01
KCVH 101415Z AUTO 00000KT 10SM FEW016 15/10 A3008 RMK A01
KCVH 101355Z AUTO 00000KT 10SM OVC016 14/10 A3008 RMK A01
KCVH 101335Z AUTO 00000KT 10SM OVC016 13/10 A3007 RMK A01
KCVH 101315Z AUTO 00000KT 10SM BKN017 13/10 A3007 RMK A01
KCVH 101255Z AUTO 00000KT 10SM BKN017 BKN120 12/10 A3006 RMK A01
KCVH 101235Z AUTO 00000KT 10SM SCT017 SCT120 13/10 A3006 RMK A01
KCVH 101215Z AUTO 00000KT 10SM CLR 13/10 A3005 RMK A01
KCVH 101155Z AUTO 00000KT 10SM CLR 12/10 A3005 RMK A01
KCVH 101135Z AUTO 00000KT 10SM CLR 12/09 A3005 RMK A01
KCVH 101115Z AUTO 00000KT 10SM CLR 13/10 A3005 RMK A01
KCVH 101055Z AUTO 00000KT 10SM CLR 14/10 A3004 RMK A01
KCVH 101035Z AUTO 00000KT 10SM CLR 13/10 A3004 RMK A01
KCVH 101015Z AUTO 00000KT 10SM CLR 13/10 A3004 RMK A01
KCVH 100955Z AUTO 00000KT 10SM CLR 14/10 A3004 RMK A01
KCVH 100935Z AUTO 00000KT 10SM FEW110 15/11 A3004 RMK A01
KCVH 100915Z AUTO 00000KT 10SM CLR 15/11 A3004 RMK A01
KCVH 100855Z AUTO 00000KT 10SM CLR 15/11 A3004 RMK A01
KCVH 100835Z AUTO 00000KT 10SM CLR 15/12 A3004 RMK A01
KCVH 100815Z AUTO 00000KT 10SM CLR 15/11 A3005 RMK A01
KCVH 100755Z AUTO 00000KT 10SM CLR 15/12 A3005 RMK A01
KCVH 100735Z AUTO 00000KT 10SM CLR 16/12 A3005 RMK A01
KCVH 100715Z AUTO 00000KT 10SM CLR 16/12 A3005 RMK A01
KCVH 100655Z AUTO 00000KT 10SM CLR 16/13 A3005 RMK A01
KCVH 100635Z AUTO 00000KT 10SM CLR 15/12 A3004 RMK A01
KCVH 100615Z AUTO 00000KT 10SM CLR 16/13 A3004 RMK A01
KCVH 100555Z AUTO 00000KT 10SM CLR 16/13 A3004 RMK A01
KCVH 100535Z AUTO 00000KT 10SM CLR 16/13 A3004 RMK A01
KCVH 100515Z AUTO 00000KT 10SM CLR 17/13 A3004 RMK A01
KCVH 100455Z AUTO 27005KT 10SM CLR 17/13 A3003 RMK A01
KCVH 100435Z AUTO 27005KT 10SM CLR 18/13 A3002 RMK A01
KCVH 100415Z AUTO 00000KT 10SM CLR 18/13 A3002 RMK A01
KCVH 100355Z AUTO 29005KT 10SM CLR 18/13 A3002 RMK A01
KCVH 100335Z AUTO 31008G13KT 10SM CLR 18/13 A3001 RMK A01
KCVH 100315Z AUTO VRB04G16KT 10SM CLR 19/13 A3000 RMK A01
KCVH 100255Z AUTO 24014KT 10SM CLR 19/13 A2999 RMK A01
KCVH 100235Z AUTO 23017KT 10SM CLR 20/13 A2998 RMK A01
KCVH 100215Z AUTO 23019KT 10SM CLR 21/13 A2998 RMK A01
KCVH 100155Z AUTO 22018KT 10SM CLR 22/12 A2997 RMK A01
KCVH 100135Z AUTO 22017G23KT 10SM CLR 23/12 A2997 RMK A01
KCVH 100115Z AUTO 24019KT 10SM CLR 23/12 A2997 RMK A01
KCVH 100055Z AUTO 24021G28KT 10SM CLR 23/12 A2997 RMK A01
KCVH 100035Z AUTO 23021G27KT 10SM CLR 23/12 A2996 RMK A01
KCVH 100015Z AUTO 23021G27KT 10SM CLR 24/12 A2995 RMK A01
KCVH 092355Z AUTO 23019G27KT 10SM CLR 25/12 A2995 RMK A01
KCVH 092335Z AUTO 23022G27KT 10SM CLR 26/12 A2995 RMK A01
KCVH 092315Z AUTO 23021KT 10SM CLR 26/11 A2995 RMK A01
KCVH 092255Z AUTO 23020KT 10SM CLR 27/11 A2995 RMK A01
KCVH 092235Z AUTO 23021KT 10SM CLR 27/11 A2995 RMK A01
KCVH 092215Z AUTO 23019KT 10SM CLR 28/12 A2995 RMK A01
KCVH 092155Z AUTO 24016KT 10SM CLR 28/12 A2996 RMK A01
KCVH 092135Z AUTO 24017KT 10SM CLR 28/12 A2996 RMK A01
KCVH 092115Z AUTO 24016G21KT 10SM CLR 28/12 A2997 RMK A01
KCVH 092055Z AUTO 24014KT 10SM CLR 28/11 A2997 RMK A01
KCVH 092035Z AUTO 24013KT 210V270 10SM CLR 29/13 A2997 RMK A01
KCVH 092015Z AUTO 25014KT 10SM CLR 29/13 A2997 RMK A01
KCVH 091955Z AUTO VRB04KT 10SM CLR 28/12 A2998 RMK A01
KCVH 091935Z AUTO 30006KT 10SM CLR 27/12 A2999 RMK A01
KCVH 091915Z AUTO VRB04KT 10SM CLR 25/13 A2999 RMK A01
KCVH 091855Z AUTO 35004KT 10SM CLR 25/13 A3000 RMK A01
KCVH 091835Z AUTO 00000KT 10SM CLR 24/13 A3001 RMK A01
KCVH 091815Z AUTO 00000KT 10SM CLR 23/13 A3001 RMK A01
KCVH 091755Z AUTO 00000KT 10SM CLR 22/13 A3001 RMK A01
KCVH 091735Z AUTO 00000KT 10SM CLR 21/13 A3001 RMK A01
KCVH 091715Z AUTO VRB04G10KT 10SM CLR 21/13 A3001 RMK A01
KCVH 091655Z AUTO 00000KT 10SM CLR 20/13 A3002 RMK A01
KCVH 091635Z AUTO 00000KT 10SM CLR 19/13 A3003 RMK A01
KCVH 091615Z AUTO 00000KT 10SM CLR 18/13 A3003 RMK A01
KCVH 091555Z AUTO 00000KT 10SM FEW016 17/13 A3003 RMK A01
KCVH 091535Z AUTO 00000KT 10SM BKN016 17/13 A3003 RMK A01
KCVH 091515Z AUTO 00000KT 10SM OVC016 17/13 A3003 RMK A01
KCVH 091455Z AUTO 00000KT 10SM OVC015 17/13 A3003 RMK A01
KCVH 091435Z AUTO 00000KT 10SM 17/13 A3002 RMK A01
KCVH 091415Z AUTO 00000KT 10SM 17/13 A3001 RMK A01
KCVH 091355Z AUTO 00000KT 10SM BKN013 16/13 A3001 RMK A01
KCVH 091335Z AUTO 00000KT 10SM BKN014 15/12 A3000 RMK A01
KCVH 091315Z AUTO 00000KT 10SM FEW014 15/12 A3000 RMK A01
KCVH 091255Z AUTO 00000KT 10SM CLR 15/12 A2999 RMK A01
KCVH 091235Z AUTO 00000KT 10SM CLR 15/12 A2999 RMK A01
KCVH 091215Z AUTO 00000KT 10SM CLR 16/13 A2999 RMK A01
KCVH 091155Z AUTO 00000KT 10SM CLR 16/13 A2999 RMK A01
KCVH 091135Z AUTO 00000KT 10SM CLR 16/12 A2999 RMK A01
KCVH 091115Z AUTO 00000KT 10SM CLR 16/12 A2998 RMK A01
KCVH 091055Z AUTO 00000KT 10SM CLR 17/13 A2998 RMK A01
KCVH 091035Z AUTO 00000KT 10SM CLR 17/13 A2998 RMK A01
KCVH 091015Z AUTO 00000KT 10SM CLR 17/13 A2998 RMK A01
KCVH 090955Z AUTO 00000KT 10SM CLR 18/13 A2998 RMK A01
KCVH 090935Z AUTO 00000KT 10SM CLR 18/13 A2998 RMK A01
KCVH 090915Z AUTO 00000KT 10SM CLR 18/13 A2998 RMK A01
KCVH 090855Z AUTO 00000KT 10SM CLR 18/12 A2998 RMK A01
KCVH 090835Z AUTO 00000KT 10SM CLR 18/13 A2998 RMK A01
KCVH 090815Z AUTO 00000KT 10SM CLR 18/13 A2998 RMK A01
KCVH 090755Z AUTO 00000KT 10SM CLR 19/13 A2999 RMK A01
KCVH 090735Z AUTO 00000KT 10SM CLR 19/13 A2999 RMK A01
KCVH 090715Z AUTO 00000KT 10SM CLR 19/13 A2999 RMK A01
KCVH 090655Z AUTO 00000KT 10SM CLR 19/13 A2999 RMK A01
KCVH 090635Z AUTO 00000KT 10SM CLR 20/12 A2999 RMK A01
KCVH 090615Z AUTO 00000KT 10SM CLR 19/12 A2998 RMK A01
KCVH 090555Z AUTO 00000KT 10SM CLR 19/12 A2998 RMK A01
KCVH 090535Z AUTO 17004KT 10SM CLR 19/12 A2998 RMK A01
KCVH 090515Z AUTO 00000KT 10SM CLR 20/12 A2998 RMK A01
KCVH 090455Z AUTO 00000KT 10SM CLR 19/12 A2998 RMK A01
KCVH 090435Z AUTO 00000KT 10SM CLR 20/12 A2998 RMK A01
KCVH 090415Z AUTO 00000KT 10SM CLR 20/12 A2997 RMK A01
KCVH 090355Z AUTO 00000KT 10SM CLR 20/12 A2996 RMK A01
KCVH 090335Z AUTO 25004KT 10SM FEW120 20/12 A2996 RMK A01
KCVH 090315Z AUTO 25006KT 10SM CLR 21/12 A2995 RMK A01